KNQI/NQI METAR and TAF weather

Enter ICAO airport designator
Station Type Date Time Source
KNQI METAR 2019/06/16 20:56 UTC NOAA

KNQI 162056Z 14020G27KT 10SM FEW038 FEW060 SCT200 34/25 A2978 RMK AO2 PK WND 14027/2048 SLP081 T03440250 56019 $


Station Type Date Time Source
KNQI Decoded METAR 2019/06/16 20:56 UTC NOAA

KINGSVILLE NAS, TX, United States (KNQI) 27-50N 097-81W 15M
Jun 16, 2019 - 04:56 PM EDT / 2019.06.16 2056 UTC
Wind: from the SE (140 degrees) at 23 MPH (20 KT) gusting to 31 MPH (27 KT):0
Visibility: 10 mile(s):0
Sky conditions: partly cloudy
Temperature: 93.9 F (34.4 C)
Heat index: 108.3 F (42.4 C):1
Dew Point: 77.0 F (25.0 C)
Relative Humidity: 58%
Pressure (altimeter): 29.78 in. Hg (1008 hPa)
Pressure tendency: 0.06 inches (1.9 hPa) lower than three hours ago
ob: KNQI 162056Z 14020G27KT 10SM FEW038 FEW060 SCT200 34/25 A2978 RMK AO2 PK WND 14027/2048 SLP081 T03440250 56019
cycle: 21

Station Type Date Time Source
KNQI TAF 2019/06/16 16:48 UTC NOAA

TAF TAF
AMD KNQI 1616/1715 16020G28KT 9999 VCTS SCT030CB BKN030 QNH2975INS
BECMG 1618/1620 16020G28KT VCTS FEW030 SCT030CB SCT250 QNH2972INS
BECMG 1622/1700 14020G28KT 9999 FEW030 SCT250 QNH2970INS
FM170200 15012KT 9999 FEW0007 BKN030 QNH2975INS
TEMPO 1709/1712 9000 BR
FM171200 15010KT 9999 VCSH FEW010 SCT030 QNH2978INS AUTOMATED SENSOR METWATCH 1616 TIL 1620 T34/1621Z T25/1712Z
AMD 1646 FN00178

Example: see airport list